To NAV CANADA Home Page Login to a new session Search on AWWS site Disclaimer Vers la page française équivalente Tips FAQ What's new on the site To the Forecasts and Observations / NOTAM section To "File a Flight Plan" website Publications and other links Update of the User's profile FIC Telephone Numbers My Weather Data Folder Route Weather Data Regional Weather Data Local Weather Data To the Forecasts and Observations / NOTAM section
Request Generated 06/15/2019 at 23:17:38 UTC . Weather information available at that time is displayed.

METAR/TAF

IQALUIT/NU    

METAR CYFB 152300Z 15005KT 30SM BKN018 BKN039 OVC100 03/01 A3007 RMK SC5SC2AC1 SLP186=
METAR CYFB 152200Z 14010KT 30SM BKN018 OVC036 03/01 A3007 RMK SC6SC2 SLP188=
METAR CYFB 152100Z 12007KT 30SM FEW004 OVC013 03/02 A3008 RMK SF1SC8 SF TR SLP191=

TAF AMD CYFB 151817Z 1518/1618 12005KT P6SM -RA OVC015 TEMPO
1518/1606 2SM -RA BR OVC005
BECMG 1522/1524 11008KT
FM160600 11008KT 1SM -RA BR OVC004 TEMPO 1606/1618 6SM BR SCT004
OVC010
RMK NXT FCST BY 160000Z=
Your time UTC time
Weather data provided by Environment Canada and NAV CANADA